Time;durP1;ratioP1;P1;durP2;ratioP2;P2;SDS_P1;SDS_P2;PMS_P1;PMS_P2;Temp;Humidity;BMP_temperature;BMP_pressure;BME280_temperature;BME280_humidity;BME280_pressure;Samples;Min_cycle;Max_cycle;Signal;HPM_P1;HPM_P2
2022/05/03 00:02:28;;;;;;;7.30;3.40;;;;;;;9.96;66.28;99605.39;25156;1315;3050528;-67
2022/05/03 00:05:04;;;;;;;6.20;2.60;;;;;;;9.94;66.68;99608.31;25140;1315;3053754;-66
2022/05/03 00:07:44;;;;;;;7.80;2.60;;;;;;;10.52;65.64;99608.73;25169;1315;3051665;-66
2022/05/03 00:10:16;;;;;;;10.40;3.00;;;;;;;10.83;64.24;99602.01;25133;1315;3071013;-65
2022/05/03 00:12:56;;;;;;;7.20;3.10;;;;;;;10.99;63.13;99602.11;25129;1315;3026446;-66
2022/05/03 00:15:25;;;;;;;5.40;2.70;;;;;;;10.71;63.93;99598.89;25132;1315;3052044;-66
2022/05/03 00:17:54;;;;;;;6.50;2.20;;;;;;;10.52;64.21;99598.77;25160;1315;3026601;-68
2022/05/03 00:20:23;;;;;;;8.70;2.60;;;;;;;10.36;64.57;99601.94;25130;1315;3048011;-67
2022/05/03 00:22:54;;;;;;;5.30;2.80;;;;;;;10.34;64.51;99595.55;25128;1313;3026526;-66
2022/05/03 00:25:23;;;;;;;5.30;2.50;;;;;;;10.27;64.68;99591.77;25134;1315;3068408;-68
2022/05/03 00:27:52;;;;;;;8.80;2.40;;;;;;;10.18;64.93;99593.13;25124;1315;3026532;-65
2022/05/03 00:30:21;;;;;;;10.50;2.50;;;;;;;9.98;65.71;99594.95;25148;1315;3049868;-66
2022/05/03 00:32:51;;;;;;;4.70;2.50;;;;;;;9.93;65.71;99594.85;25117;1315;3028564;-66
2022/05/03 00:35:21;;;;;;;5.50;2.40;;;;;;;9.83;66.18;99592.81;25149;1315;3026405;-66
2022/05/03 00:37:51;;;;;;;5.00;2.50;;;;;;;9.88;65.72;99592.54;25152;1315;3026125;-67
2022/05/03 00:40:20;;;;;;;8.70;2.00;;;;;;;9.86;66.22;99589.34;25133;1315;3026248;-67
2022/05/03 00:43:21;;;;;;;8.00;1.90;;;;;;;10.41;65.52;99587.64;25137;1314;3049568;-66
2022/05/03 00:45:56;;;;;;;7.10;2.00;;;;;;;10.56;64.22;99585.25;25133;1315;3053140;-67
2022/05/03 00:48:41;;;;;;;4.60;2.50;;;;;;;10.70;63.61;99577.57;25148;1315;3051866;-67
2022/05/03 00:51:15;;;;;;;6.00;2.10;;;;;;;10.64;62.97;99581.40;25120;1315;3059100;-65
2022/05/03 00:54:07;;;;;;;4.00;1.90;;;;;;;10.40;63.39;99581.40;25122;1315;3050162;-64
2022/05/03 00:56:41;;;;;;;7.10;2.10;;;;;;;10.33;63.37;99580.90;25088;1315;3055565;-65
2022/05/03 00:59:25;;;;;;;5.50;2.40;;;;;;;10.20;63.69;99584.99;25129;1315;3029411;-67
2022/05/03 01:02:02;;;;;;;4.20;2.60;;;;;;;10.00;64.28;99578.23;25159;1314;3071880;-66
2022/05/03 01:04:50;;;;;;;6.80;1.80;;;;;;;10.01;63.52;99580.63;25130;1315;3048366;-66
2022/05/03 01:07:33;;;;;;;4.20;2.10;;;;;;;9.93;63.63;99581.94;25123;1315;3054855;-64
2022/05/03 01:10:18;;;;;;;7.90;2.40;;;;;;;9.71;64.67;99577.02;25112;1315;3051434;-66
2022/05/03 01:12:53;;;;;;;5.70;2.10;;;;;;;9.73;64.59;99578.00;25130;1315;3058711;-66
2022/05/03 01:15:28;;;;;;;6.60;2.00;;;;;;;9.62;65.04;99578.75;25118;1315;3050213;-66
2022/05/03 01:18:26;;;;;;;5.70;2.00;;;;;;;9.53;65.20;99581.70;25167;1315;3052818;-63
2022/05/03 01:21:11;;;;;;;4.90;2.10;;;;;;;9.56;65.05;99578.73;25118;1315;3051704;-66
2022/05/03 01:23:59;;;;;;;4.00;1.90;;;;;;;9.57;65.00;99578.34;25127;1315;3070967;-64
2022/05/03 01:26:59;;;;;;;2.20;1.80;;;;;;;9.44;65.28;99576.22;25148;1315;3049108;-67
2022/05/03 01:29:32;;;;;;;8.20;2.50;;;;;;;9.46;64.70;99574.36;25159;1315;3052608;-65
2022/05/03 01:32:04;;;;;;;3.70;2.20;;;;;;;9.44;64.69;99571.88;25122;1315;3026262;-65
2022/05/03 01:34:35;;;;;;;6.60;1.80;;;;;;;9.44;64.74;99577.12;25137;1314;3026572;-65
2022/05/03 01:37:30;;;;;;;6.40;2.10;;;;;;;9.39;64.68;99571.92;25124;1314;3026779;-66
2022/05/03 01:40:03;;;;;;;6.20;2.10;;;;;;;9.48;64.09;99570.95;25149;1315;3055818;-65
2022/05/03 01:42:51;;;;;;;6.70;2.30;;;;;;;9.44;64.57;99567.70;25123;1315;3026341;-65
2022/05/03 01:45:28;;;;;;;4.60;2.20;;;;;;;9.32;65.33;99568.33;25124;1315;3067660;-66
2022/05/03 01:48:23;;;;;;;3.80;2.30;;;;;;;9.41;64.51;99569.39;25145;1315;3054263;-66
2022/05/03 01:51:01;;;;;;;6.90;2.30;;;;;;;9.40;64.58;99565.42;25115;1313;3054667;-67
2022/05/03 01:53:47;;;;;;;3.40;2.10;;;;;;;9.32;64.76;99565.70;25168;1315;3052652;-64
2022/05/03 01:56:26;;;;;;;6.10;2.30;;;;;;;9.39;64.58;99560.45;25108;1315;3056619;-66
2022/05/03 01:59:16;;;;;;;5.00;2.80;;;;;;;9.31;64.81;99557.70;25124;1313;3053038;-64
2022/05/03 02:01:56;;;;;;;8.20;2.20;;;;;;;9.29;64.70;99564.23;25116;1315;3054105;-67
2022/05/03 02:04:50;;;;;;;7.20;2.40;;;;;;;9.37;64.05;99563.14;25152;1315;3051492;-66
2022/05/03 02:07:56;;;;;;;5.40;2.40;;;;;;;9.35;64.09;99565.86;25099;1313;3071368;-66
2022/05/03 02:10:53;;;;;;;6.70;2.30;;;;;;;9.34;64.26;99566.27;25119;1315;3051360;-64
2022/05/03 02:14:43;;;;;;;7.10;2.80;;;;;;;9.35;63.85;99567.64;25139;1315;3052699;-65
2022/05/03 02:16:49;;;;;;;9.80;2.90;;;;;;;9.27;64.26;99568.21;25145;1315;3052942;-65
2022/05/03 02:19:50;;;;;;;4.70;2.20;;;;;;;9.27;64.50;99568.39;25079;1315;3056243;-66
2022/05/03 02:22:54;;;;;;;8.20;3.00;;;;;;;9.21;64.71;99571.85;25131;1315;3052447;-67
2022/05/03 02:25:37;;;;;;;11.70;3.00;;;;;;;9.15;65.02;99577.08;25204;1315;3055992;-64
2022/05/03 02:28:45;;;;;;;7.00;2.70;;;;;;;9.19;64.82;99575.30;25710;1315;3051639;-65
2022/05/03 02:31:18;;;;;;;7.70;3.30;;;;;;;9.13;64.88;99576.48;25733;1315;3069309;-66
2022/05/03 02:33:56;;;;;;;4.30;2.50;;;;;;;9.18;65.24;99580.58;25418;1313;3049121;-67
2022/05/03 02:36:25;;;;;;;5.20;1.90;;;;;;;10.09;63.40;99580.90;25197;1315;3052868;-67
2022/05/03 02:39:05;;;;;;;6.40;2.50;;;;;;;10.57;61.34;99580.76;25129;1315;3028720;-64
2022/05/03 02:41:38;;;;;;;5.10;1.90;;;;;;;10.51;60.43;99584.11;25163;1315;3056345;-66
2022/05/03 02:44:07;;;;;;;4.10;2.10;;;;;;;10.19;60.78;99582.05;25093;1314;3027621;-66
2022/05/03 02:47:03;;;;;;;6.90;2.10;;;;;;;10.08;60.78;99580.73;25153;1313;3026411;-66
2022/05/03 02:49:47;;;;;;;5.60;2.20;;;;;;;9.89;61.37;99583.05;25131;1315;3051789;-68
2022/05/03 02:52:33;;;;;;;6.80;2.20;;;;;;;9.79;61.59;99578.70;25068;1315;3071000;-65
2022/05/03 02:55:16;;;;;;;5.80;2.30;;;;;;;9.61;62.11;99579.30;25096;1315;3052092;-65
2022/05/03 02:58:18;;;;;;;8.00;2.40;;;;;;;9.54;62.70;99582.51;25099;1315;3055227;-65
2022/05/03 03:03:53;;;;;;;2.10;1.70;;;;;;;9.61;61.78;99588.79;25130;1315;3056265;-67
2022/05/03 03:06:23;;;;;;;6.70;2.50;;;;;;;9.49;62.28;99582.95;25120;1313;3026940;-66
2022/05/03 03:08:54;;;;;;;4.20;2.20;;;;;;;9.44;62.85;99586.19;25152;1315;3055610;-67
2022/05/03 03:11:33;;;;;;;5.00;2.40;;;;;;;9.40;63.14;99587.96;25155;1315;3026271;-64
2022/05/03 03:14:09;;;;;;;3.90;2.20;;;;;;;9.40;63.13;99586.77;25113;1315;3051895;-62
2022/05/03 03:16:43;;;;;;;5.20;2.80;;;;;;;9.39;63.03;99586.46;25133;1315;3053474;-64
2022/05/03 03:19:43;;;;;;;3.60;2.10;;;;;;;9.36;63.17;99591.66;25155;1315;3051843;-69
2022/05/03 03:22:13;;;;;;;10.00;2.60;;;;;;;9.36;63.15;99592.40;25115;1315;3071117;-65
2022/05/03 03:24:43;;;;;;;7.70;2.20;;;;;;;9.27;63.56;99592.36;25117;1315;3028534;-66
2022/05/03 03:27:12;;;;;;;4.90;2.40;;;;;;;9.34;63.36;99592.84;25165;1315;3026769;-65
2022/05/03 03:29:41;;;;;;;4.70;2.10;;;;;;;9.29;63.77;99596.08;25164;1313;3027581;-65
2022/05/03 03:32:12;;;;;;;4.20;2.50;;;;;;;9.24;63.71;99590.05;25151;1315;3050905;-64
2022/05/03 03:34:42;;;;;;;5.00;2.90;;;;;;;9.37;63.23;99594.28;25084;1315;3026283;-65
2022/05/03 03:37:11;;;;;;;7.70;3.10;;;;;;;9.40;63.46;99593.55;25139;1315;3027092;-65
2022/05/03 03:39:40;;;;;;;11.90;3.00;;;;;;;9.41;63.40;99600.88;25129;1315;3026044;-65
2022/05/03 03:42:09;;;;;;;15.80;3.70;;;;;;;9.45;63.41;99601.55;25142;1315;3052331;-64
2022/05/03 03:44:38;;;;;;;3.80;2.10;;;;;;;9.48;63.11;99601.88;25139;1315;3026522;-65
2022/05/03 03:47:07;;;;;;;7.00;2.90;;;;;;;9.54;63.23;99608.58;25126;1315;3027050;-66
2022/05/03 03:49:36;;;;;;;9.90;2.80;;;;;;;9.58;63.01;99606.77;25117;1315;3052012;-64
2022/05/03 03:52:08;;;;;;;7.10;2.70;;;;;;;9.61;62.78;99610.81;25132;1315;3026916;-64
2022/05/03 03:54:40;;;;;;;7.90;2.80;;;;;;;9.63;62.67;99613.33;25124;1315;3026260;-63
2022/05/03 03:57:09;;;;;;;5.60;3.10;;;;;;;9.71;62.69;99616.73;25103;1315;3026552;-65
2022/05/03 03:59:38;;;;;;;6.70;2.80;;;;;;;9.73;62.76;99616.77;25127;1315;3026579;-62
2022/05/03 04:02:07;;;;;;;4.60;2.60;;;;;;;9.83;62.25;99619.41;25159;1315;3026471;-65
2022/05/03 04:04:37;;;;;;;6.60;3.30;;;;;;;9.95;61.81;99617.02;25124;1315;3049438;-67
2022/05/03 04:07:06;;;;;;;4.80;2.80;;;;;;;9.99;61.74;99617.16;25108;1315;3027957;-64
2022/05/03 04:09:36;;;;;;;15.40;3.40;;;;;;;10.05;61.47;99622.05;25114;1314;3026380;-66
2022/05/03 04:12:06;;;;;;;8.00;3.10;;;;;;;10.13;61.51;99612.98;25079;1315;3026540;-64
2022/05/03 04:14:35;;;;;;;3.80;2.40;;;;;;;10.19;61.03;99617.73;25139;1315;3027524;-67
2022/05/03 04:17:04;;;;;;;5.00;2.50;;;;;;;10.25;60.85;99616.90;25147;1315;3026723;-65
2022/05/03 04:19:35;;;;;;;5.30;3.10;;;;;;;10.33;60.48;99622.77;25099;1315;3068175;-66
2022/05/03 04:22:22;;;;;;;8.80;4.50;;;;;;;10.44;59.97;99625.16;25106;1315;3026803;-67
2022/05/03 04:24:52;;;;;;;10.40;3.10;;;;;;;10.51;59.70;99623.32;25169;1315;3052892;-66
2022/05/03 04:27:22;;;;;;;5.10;3.10;;;;;;;10.59;59.23;99624.29;25131;1315;3026540;-65
2022/05/03 04:29:51;;;;;;;5.90;2.30;;;;;;;10.69;59.13;99626.68;25154;1315;3026849;-64
2022/05/03 04:32:20;;;;;;;10.80;2.90;;;;;;;10.80;58.75;99628.11;25146;1315;3055207;-66
2022/05/03 04:34:49;;;;;;;10.30;3.40;;;;;;;10.86;58.28;99631.85;25130;1315;3026471;-66
2022/05/03 04:37:19;;;;;;;5.20;3.20;;;;;;;10.91;58.19;99631.83;25108;1315;3050342;-69
2022/05/03 04:39:48;;;;;;;10.80;3.60;;;;;;;11.01;58.38;99630.04;25160;1315;3026510;-65
2022/05/03 04:42:17;;;;;;;4.90;2.60;;;;;;;11.14;57.23;99629.81;25109;1314;3070621;-67
2022/05/03 04:44:46;;;;;;;6.10;2.60;;;;;;;11.20;55.91;99628.73;25113;1315;3027152;-66
2022/05/03 04:47:15;;;;;;;6.90;3.10;;;;;;;11.26;55.07;99628.90;25132;1315;3050417;-65
2022/05/03 04:49:44;;;;;;;5.80;2.70;;;;;;;11.29;55.46;99622.06;25143;1315;3026570;-66
2022/05/03 04:52:13;;;;;;;7.50;3.20;;;;;;;11.33;54.45;99621.96;25117;1313;3053616;-66
2022/05/03 04:54:42;;;;;;;13.90;3.50;;;;;;;11.39;54.14;99621.26;25126;1313;3029834;-66
2022/05/03 04:57:12;;;;;;;9.80;2.60;;;;;;;11.45;54.13;99617.20;25135;1315;3051579;-68
2022/05/03 04:59:40;;;;;;;4.70;2.70;;;;;;;11.49;53.17;99621.73;25134;1314;3026435;-65
2022/05/03 05:02:10;;;;;;;6.80;2.40;;;;;;;11.60;53.31;99621.38;25107;1314;3058027;-67
2022/05/03 05:04:39;;;;;;;8.40;3.00;;;;;;;11.66;52.00;99626.98;25125;1313;3027215;-65
2022/05/03 05:07:10;;;;;;;5.20;3.30;;;;;;;11.66;52.10;99621.21;25101;1313;3026162;-66
2022/05/03 05:10:23;;;;;;;6.40;3.00;;;;;;;11.70;51.99;99625.70;25159;1315;3056875;-66
2022/05/03 05:12:30;;;;;;;8.70;3.70;;;;;;;11.69;51.28;99621.20;25139;1315;3053047;-64
2022/05/03 05:14:59;;;;;;;8.10;3.50;;;;;;;11.76;51.83;99621.77;25194;1313;3028756;-65
2022/05/03 05:17:28;;;;;;;11.00;3.60;;;;;;;11.81;50.55;99623.80;25143;1313;3026119;-66
2022/05/03 05:19:57;;;;;;;8.90;3.90;;;;;;;11.90;50.67;99619.85;25165;1313;3051568;-67
2022/05/03 05:22:26;;;;;;;6.60;2.70;;;;;;;11.97;50.55;99625.05;25109;1313;3026677;-66
2022/05/03 05:24:55;;;;;;;6.20;2.70;;;;;;;11.94;50.11;99626.27;25133;1314;3058198;-65
2022/05/03 05:27:23;;;;;;;8.60;3.00;;;;;;;12.06;50.01;99623.23;25141;1313;3026461;-66
2022/05/03 05:29:52;;;;;;;12.40;2.80;;;;;;;12.15;50.12;99619.88;25158;1315;3051500;-66
2022/05/03 05:32:21;;;;;;;6.40;2.80;;;;;;;12.21;50.09;99621.58;25100;1313;3026879;-64
2022/05/03 05:34:51;;;;;;;10.20;2.70;;;;;;;12.32;49.56;99621.62;25176;1313;3054755;-67
2022/05/03 05:37:20;;;;;;;10.20;2.80;;;;;;;12.36;49.32;99618.88;25147;1313;3028740;-67
2022/05/03 05:39:49;;;;;;;7.50;2.90;;;;;;;12.47;49.39;99617.44;25178;1313;3048875;-67
2022/05/03 05:42:18;;;;;;;6.70;3.30;;;;;;;12.47;49.01;99613.40;25146;1313;3026793;-66
2022/05/03 05:44:47;;;;;;;6.40;2.70;;;;;;;12.55;49.13;99618.66;25143;1315;3069387;-67
2022/05/03 05:47:17;;;;;;;7.80;3.00;;;;;;;12.48;49.39;99615.09;25107;1315;3027232;-66
2022/05/03 05:49:46;;;;;;;8.00;2.80;;;;;;;12.61;49.36;99613.52;25192;1313;3051287;-66
2022/05/03 05:55:04;;;;;;;5.40;2.60;;;;;;;12.77;48.73;99605.77;25158;1313;3055364;-68
2022/05/03 05:57:33;;;;;;;6.50;3.20;;;;;;;12.93;48.67;99607.20;25188;1313;3026780;-65
2022/05/03 06:00:04;;;;;;;10.90;2.90;;;;;;;12.96;48.65;99609.41;25164;1313;3027449;-67
2022/05/03 06:02:41;;;;;;;10.50;2.90;;;;;;;13.05;48.13;99602.27;25149;1315;3048795;-68
2022/05/03 06:05:10;;;;;;;13.20;2.90;;;;;;;13.11;48.17;99608.56;25143;1315;3028430;-68
2022/05/03 06:07:40;;;;;;;3.60;2.40;;;;;;;13.22;48.04;99602.56;25107;1313;3069428;-67
2022/05/03 06:10:10;;;;;;;6.50;2.80;;;;;;;13.32;47.67;99604.13;25150;1313;3026775;-66
2022/05/03 06:12:40;;;;;;;6.20;2.50;;;;;;;13.38;47.50;99600.20;25185;1313;3026225;-66
2022/05/03 06:15:09;;;;;;;8.30;2.80;;;;;;;13.55;46.57;99598.18;25157;1313;3026816;-67
2022/05/03 06:17:40;;;;;;;5.40;2.30;;;;;;;13.71;46.14;99600.58;25138;1313;3047977;-66
2022/05/03 06:20:10;;;;;;;12.70;2.20;;;;;;;13.81;45.10;99599.64;25155;1315;3027017;-67
2022/05/03 06:22:39;;;;;;;5.20;2.20;;;;;;;13.81;43.88;99601.65;25129;1313;3028434;-67
2022/05/03 06:25:09;;;;;;;9.80;2.50;;;;;;;13.93;44.07;99598.48;25170;1315;3029925;-66
2022/05/03 06:27:40;;;;;;;5.70;2.20;;;;;;;14.06;43.32;99597.30;25109;1313;3053955;-68
2022/05/03 06:30:09;;;;;;;9.30;2.20;;;;;;;14.12;42.96;99594.65;25189;1313;3026655;-67
2022/05/03 06:32:40;;;;;;;9.70;2.40;;;;;;;14.20;43.38;99595.65;24895;1313;3397666;-69
2022/05/03 06:35:13;;;;;;;7.10;2.20;;;;;;;14.27;42.76;99595.11;25117;1315;3028465;-69
2022/05/03 06:37:42;;;;;;;9.40;2.30;;;;;;;14.41;43.27;99594.73;25138;1315;3026249;-65
2022/05/03 06:40:11;;;;;;;6.50;2.30;;;;;;;14.50;42.71;99593.08;25184;1315;3029950;-65
2022/05/03 06:42:40;;;;;;;9.30;2.50;;;;;;;14.55;42.90;99594.28;25141;1313;3054358;-67
2022/05/03 06:45:10;;;;;;;7.70;2.20;;;;;;;14.70;42.85;99593.90;25110;1313;3028337;-68
2022/05/03 06:47:40;;;;;;;8.00;2.20;;;;;;;14.80;42.28;99589.06;25210;1315;3050597;-65
2022/05/03 06:50:09;;;;;;;4.80;2.10;;;;;;;14.93;42.63;99583.11;25187;1315;3027344;-66
2022/05/03 06:52:38;;;;;;;5.10;2.50;;;;;;;15.04;42.38;99581.70;25398;1313;3027190;-67
2022/05/03 06:55:08;;;;;;;9.30;2.60;;;;;;;15.05;42.11;99580.29;25909;1313;3026309;-67
2022/05/03 06:57:37;;;;;;;4.70;2.30;;;;;;;15.12;42.25;99577.25;25932;1313;3027237;-67
2022/05/03 07:00:08;;;;;;;7.20;2.50;;;;;;;15.23;42.82;99572.50;25627;1313;3026774;-67
2022/05/03 07:02:37;;;;;;;6.30;2.30;;;;;;;15.40;42.73;99568.19;25212;1313;3056277;-66
2022/05/03 07:05:07;;;;;;;10.40;2.80;;;;;;;15.46;41.87;99569.84;25168;1315;3028676;-66
2022/05/03 07:07:38;;;;;;;4.80;2.30;;;;;;;15.51;42.10;99569.09;25186;1313;3026609;-66
2022/05/03 07:10:08;;;;;;;9.10;2.20;;;;;;;15.64;41.92;99568.07;25109;1313;3027071;-65
2022/05/03 07:12:39;;;;;;;8.60;2.80;;;;;;;15.65;42.10;99573.27;25150;1314;3027403;-67
2022/05/03 07:15:08;;;;;;;7.30;3.50;;;;;;;15.64;41.77;99570.04;25114;1315;3029993;-66
2022/05/03 07:23:15;;;;;;;9.30;3.10;;;;;;;15.93;41.65;99566.85;25181;1313;3049491;-66
2022/05/03 07:25:47;;;;;;;6.20;2.90;;;;;;;15.97;41.64;99566.02;25121;1313;3026696;-68
2022/05/03 07:28:18;;;;;;;7.50;3.10;;;;;;;16.15;41.56;99565.23;25113;1313;3055028;-66
2022/05/03 07:30:47;;;;;;;8.30;3.00;;;;;;;16.26;40.88;99565.71;25174;1313;3026020;-69
2022/05/03 07:33:17;;;;;;;10.10;3.50;;;;;;;16.34;40.95;99563.87;25123;1313;3051858;-67
2022/05/03 07:35:46;;;;;;;9.90;3.50;;;;;;;16.24;41.23;99563.74;25146;1313;3027739;-68
2022/05/03 07:38:15;;;;;;;10.80;3.70;;;;;;;16.16;41.01;99563.91;25177;1313;3026723;-68
2022/05/03 07:40:44;;;;;;;7.50;3.10;;;;;;;16.16;41.32;99557.73;25127;1313;3054857;-66
2022/05/03 07:43:13;;;;;;;9.30;3.40;;;;;;;16.30;40.92;99553.94;25143;1313;3026777;-65
2022/05/03 07:45:42;;;;;;;7.50;2.60;;;;;;;16.51;40.70;99551.24;25128;1313;3048384;-68
2022/05/03 07:48:11;;;;;;;6.20;3.20;;;;;;;16.61;40.46;99553.65;25160;1313;3028418;-67
2022/05/03 07:50:41;;;;;;;5.50;3.10;;;;;;;16.66;40.16;99547.17;25141;1314;3070549;-67
2022/05/03 07:53:10;;;;;;;8.70;2.90;;;;;;;16.75;40.28;99543.92;25119;1313;3027161;-65
2022/05/03 07:55:39;;;;;;;8.30;2.80;;;;;;;16.97;39.84;99537.69;25149;1313;3055022;-68
2022/05/03 07:58:08;;;;;;;10.80;3.20;;;;;;;17.08;39.83;99537.95;25158;1313;3026537;-68
2022/05/03 08:00:37;;;;;;;7.40;3.20;;;;;;;17.14;39.26;99532.50;25166;1313;3054746;-68
2022/05/03 08:03:06;;;;;;;5.90;2.70;;;;;;;17.03;39.58;99533.09;25117;1313;3027863;-64
2022/05/03 08:05:35;;;;;;;8.30;3.40;;;;;;;16.89;39.63;99524.57;25144;1313;3051945;-65
2022/05/03 08:08:05;;;;;;;7.80;3.10;;;;;;;16.87;39.16;99524.06;25178;1313;3026317;-68
2022/05/03 08:10:33;;;;;;;10.10;3.20;;;;;;;16.52;40.12;99522.55;25113;1315;3058294;-68
2022/05/03 08:13:03;;;;;;;10.60;3.50;;;;;;;16.69;40.19;99517.20;25141;1313;3026241;-67
2022/05/03 08:15:32;;;;;;;8.70;3.10;;;;;;;17.09;39.42;99514.19;25126;1315;3054654;-68
2022/05/03 08:18:01;;;;;;;10.00;3.20;;;;;;;17.30;39.11;99511.32;25123;1313;3026852;-66
2022/05/03 08:20:30;;;;;;;12.80;3.40;;;;;;;17.41;38.47;99506.29;25138;1315;3052509;-68
2022/05/03 08:22:59;;;;;;;9.30;3.40;;;;;;;17.52;38.07;99503.52;25180;1313;3025993;-66
2022/05/03 08:25:28;;;;;;;8.70;3.40;;;;;;;17.59;37.46;99501.10;25166;1313;3048362;-68
2022/05/03 08:27:58;;;;;;;14.20;4.40;;;;;;;17.74;37.42;99500.89;25128;1313;3026432;-66
2022/05/03 08:30:27;;;;;;;13.50;3.80;;;;;;;17.91;36.37;99498.65;25113;1313;3026970;-68
2022/05/03 08:32:57;;;;;;;8.00;3.30;;;;;;;18.04;35.21;99493.35;25126;1315;3051094;-70
2022/05/03 08:35:26;;;;;;;8.90;3.30;;;;;;;18.28;35.22;99493.86;25140;1313;3026812;-65
2022/05/03 08:43:31;;;;;;;9.70;4.00;;;;;;;18.26;35.02;99487.31;25146;1313;3054986;-69
2022/05/03 08:46:01;;;;;;;9.00;2.90;;;;;;;18.13;35.12;99488.65;25135;1313;3026998;-67
2022/05/03 08:48:30;;;;;;;7.60;3.00;;;;;;;18.02;34.07;99487.73;25148;1315;3026351;-68
2022/05/03 08:51:00;;;;;;;8.60;3.20;;;;;;;17.81;34.88;99491.50;25114;1313;3026603;-64
2022/05/03 08:53:29;;;;;;;12.00;3.50;;;;;;;17.90;34.75;99488.25;25130;1313;3051390;-67
2022/05/03 08:55:59;;;;;;;9.10;3.20;;;;;;;17.91;34.95;99486.60;25153;1315;3028485;-69
2022/05/03 08:58:28;;;;;;;8.50;3.10;;;;;;;18.02;34.60;99484.38;25120;1313;3028135;-64
2022/05/03 09:00:57;;;;;;;7.90;2.90;;;;;;;18.05;34.54;99481.03;25113;1315;3053095;-69
2022/05/03 09:03:26;;;;;;;7.30;3.50;;;;;;;18.05;33.70;99474.75;25160;1313;3026772;-62
2022/05/03 09:05:55;;;;;;;8.10;3.00;;;;;;;18.17;34.30;99477.89;25147;1315;3050534;-68
2022/05/03 09:08:24;;;;;;;8.30;2.70;;;;;;;18.17;33.80;99478.76;25100;1313;3026644;-67
2022/05/03 09:10:53;;;;;;;10.90;3.50;;;;;;;17.99;34.12;99477.70;25172;1315;3052599;-68
2022/05/03 09:13:24;;;;;;;10.70;2.80;;;;;;;17.93;33.37;99477.19;25177;1313;3026929;-69
2022/05/03 09:16:09;;;;;;;6.60;3.00;;;;;;;17.99;33.61;99473.02;25166;1315;3026832;-67
2022/05/03 09:18:38;;;;;;;8.30;3.00;;;;;;;18.10;33.76;99468.42;25143;1315;3056057;-70
2022/05/03 09:24:15;;;;;;;10.20;3.20;;;;;;;18.22;33.38;99465.73;25139;1313;3052714;-66
2022/05/03 09:26:47;;;;;;;5.30;2.70;;;;;;;18.49;33.66;99462.18;25172;1313;3026383;-69
2022/05/03 09:29:16;;;;;;;9.60;2.80;;;;;;;18.64;32.83;99462.31;25145;1313;3027318;-68
2022/05/03 09:31:50;;;;;;;7.60;3.10;;;;;;;18.64;32.91;99461.46;25164;1313;3026815;-69
2022/05/03 09:34:27;;;;;;;8.10;3.60;;;;;;;18.63;32.76;99461.70;25157;1313;3053086;-67
2022/05/03 09:37:02;;;;;;;14.50;5.50;;;;;;;18.73;32.31;99452.24;25109;1313;3068033;-68
2022/05/03 09:39:33;;;;;;;16.30;5.60;;;;;;;18.55;31.45;99450.40;25110;1315;3048348;-68
2022/05/03 09:42:03;;;;;;;17.40;5.00;;;;;;;18.47;31.79;99444.61;25123;1313;3028824;-66
2022/05/03 09:44:36;;;;;;;11.80;5.00;;;;;;;18.51;31.55;99445.26;25138;1315;3027059;-69
2022/05/03 09:47:10;;;;;;;7.30;3.40;;;;;;;18.78;32.18;99448.75;25191;1313;3026767;-70
2022/05/03 09:49:41;;;;;;;12.70;3.40;;;;;;;19.05;31.76;99445.48;25165;1313;3048856;-70
2022/05/03 09:52:39;;;;;;;9.80;3.80;;;;;;;19.18;31.96;99442.37;25133;1313;3052973;-70
2022/05/03 09:55:09;;;;;;;10.60;3.20;;;;;;;18.77;32.56;99438.56;25125;1313;3051391;-69
2022/05/03 09:57:39;;;;;;;7.20;3.10;;;;;;;18.82;32.55;99434.20;25128;1313;3026480;-69
2022/05/03 10:00:10;;;;;;;5.90;3.00;;;;;;;18.85;32.50;99432.10;25144;1314;3026620;-69
2022/05/03 10:02:43;;;;;;;9.00;3.90;;;;;;;18.77;32.71;99424.95;25174;1315;3055334;-69
2022/05/03 10:05:12;;;;;;;8.80;4.10;;;;;;;18.59;32.81;99423.06;25126;1313;3026742;-69
2022/05/03 10:07:44;;;;;;;8.00;3.20;;;;;;;18.54;33.22;99416.26;25111;1315;3026555;-71
2022/05/03 10:10:14;;;;;;;9.20;3.30;;;;;;;18.60;32.97;99419.02;25148;1313;3026518;-70
2022/05/03 10:12:43;;;;;;;8.30;3.40;;;;;;;18.54;32.44;99414.48;25140;1313;3051610;-69
2022/05/03 10:15:14;;;;;;;16.90;3.60;;;;;;;18.44;32.45;99413.44;25161;1315;3027975;-71
2022/05/03 10:20:40;;;;;;;9.70;3.30;;;;;;;18.87;31.42;99413.44;25117;1313;3055555;-69
2022/05/03 10:23:24;;;;;;;5.70;3.40;;;;;;;19.23;31.23;99411.08;25111;1315;3051896;-70
2022/05/03 10:25:57;;;;;;;10.10;3.20;;;;;;;19.36;30.72;99402.41;25143;1313;3070050;-69
2022/05/03 10:28:46;;;;;;;7.50;3.00;;;;;;;19.45;30.83;99403.94;25120;1315;3029033;-69
2022/05/03 10:31:15;;;;;;;6.40;2.80;;;;;;;19.74;30.45;99400.50;25117;1315;3052248;-71
2022/05/03 10:33:45;;;;;;;11.90;3.30;;;;;;;19.97;29.84;99394.54;25125;1315;3026491;-70
2022/05/03 10:36:32;;;;;;;7.90;3.10;;;;;;;20.02;29.46;99388.03;25128;1313;3030253;-70
2022/05/03 10:39:05;;;;;;;11.90;3.30;;;;;;;20.22;29.20;99383.02;25137;1315;3051854;-70
2022/05/03 10:42:02;;;;;;;6.90;3.40;;;;;;;20.14;29.01;99379.75;25115;1315;3052317;-70
2022/05/03 10:44:53;;;;;;;14.90;3.20;;;;;;;20.31;28.81;99375.11;25155;1313;3059372;-69
2022/05/03 10:47:48;;;;;;;6.40;3.20;;;;;;;20.47;28.63;99377.11;25143;1313;3048833;-70
2022/05/03 10:50:17;;;;;;;7.90;3.10;;;;;;;20.55;28.49;99376.80;25157;1317;3055992;-70
2022/05/03 10:52:55;;;;;;;5.80;3.30;;;;;;;20.61;28.46;99372.98;25144;1313;3026928;-70
2022/05/03 10:55:29;;;;;;;7.50;3.80;;;;;;;20.97;28.12;99369.17;25165;1313;3052285;-70
2022/05/03 10:58:26;;;;;;;11.30;3.60;;;;;;;21.03;27.77;99365.59;25129;1315;3055572;-70
2022/05/03 11:01:10;;;;;;;6.70;3.30;;;;;;;21.06;27.21;99360.55;25121;1314;3054306;-71
2022/05/03 11:04:01;;;;;;;8.60;3.40;;;;;;;20.97;27.66;99362.30;25184;1313;3069786;-70
2022/05/03 11:06:38;;;;;;;8.80;3.10;;;;;;;21.02;27.09;99355.48;25146;1315;3053679;-71
2022/05/03 11:09:09;;;;;;;6.20;2.60;;;;;;;21.12;26.43;99361.04;25147;1313;3054720;-71
2022/05/03 11:11:41;;;;;;;6.40;3.30;;;;;;;20.95;26.84;99358.88;25553;1313;3026308;-72
2022/05/03 11:14:18;;;;;;;10.30;3.70;;;;;;;20.58;26.77;99358.17;25945;1313;3026463;-70
2022/05/03 11:16:50;;;;;;;12.00;3.10;;;;;;;20.47;26.88;99355.48;25926;1312;3050087;-69
2022/05/03 11:19:21;;;;;;;10.20;3.70;;;;;;;20.39;26.93;99352.48;25408;1313;3026643;-71
2022/05/03 11:21:51;;;;;;;13.50;4.20;;;;;;;20.39;27.35;99343.88;25180;1315;3026750;-70
2022/05/03 11:24:23;;;;;;;7.70;2.80;;;;;;;20.46;28.03;99345.85;25137;1315;3028388;-69
2022/05/03 11:26:55;;;;;;;6.80;3.20;;;;;;;20.46;28.23;99343.35;25141;1313;3028066;-70
2022/05/03 11:29:29;;;;;;;10.20;2.70;;;;;;;20.36;28.82;99339.83;25138;1315;3028347;-71
2022/05/03 11:31:59;;;;;;;10.80;2.60;;;;;;;20.33;28.90;99332.30;25120;1313;3053630;-71
2022/05/03 11:34:29;;;;;;;14.20;3.00;;;;;;;20.29;29.06;99324.32;25130;1313;3026591;-70
2022/05/03 11:37:01;;;;;;;4.80;2.40;;;;;;;20.25;29.10;99322.20;25137;1313;3026238;-70
2022/05/03 11:39:30;;;;;;;8.10;2.50;;;;;;;20.20;29.05;99318.17;25196;1315;3026842;-70
2022/05/03 11:41:59;;;;;;;6.80;2.70;;;;;;;20.10;29.13;99319.25;25125;1313;3026799;-71
2022/05/03 11:44:29;;;;;;;8.70;2.70;;;;;;;20.10;29.26;99318.27;25173;1313;3052359;-70
2022/05/03 11:47:01;;;;;;;6.20;2.60;;;;;;;20.06;29.92;99316.53;25127;1315;3027140;-71
2022/05/03 11:49:31;;;;;;;5.00;3.00;;;;;;;20.03;29.61;99311.35;25116;1313;3057261;-70
2022/05/03 11:58:03;;;;;;;5.90;2.70;;;;;;;19.82;30.16;99308.14;25047;1318;3052208;-71
2022/05/03 12:00:43;;;;;;;8.50;2.70;;;;;;;19.79;29.96;99306.27;24994;1318;3028512;-71
2022/05/03 12:03:13;;;;;;;6.10;2.60;;;;;;;19.78;29.76;99302.88;25113;1313;3050150;-71
2022/05/03 12:05:56;;;;;;;7.20;2.40;;;;;;;19.73;30.37;99298.04;25172;1313;3026977;-70
2022/05/03 12:08:25;;;;;;;4.50;2.60;;;;;;;19.70;30.22;99298.62;25142;1313;3053275;-71
2022/05/03 12:10:56;;;;;;;7.60;2.90;;;;;;;19.70;30.31;99296.17;25119;1313;3029468;-69
2022/05/03 12:13:27;;;;;;;7.70;2.70;;;;;;;19.61;30.46;99294.53;25165;1313;3052093;-70
2022/05/03 12:15:56;;;;;;;6.30;2.40;;;;;;;19.64;30.67;99295.11;25158;1313;3028993;-69
2022/05/03 12:18:32;;;;;;;6.20;2.80;;;;;;;19.67;30.48;99290.27;25116;1315;3026705;-71